createdAt,value
2018-04-24T00:04:14.616Z,99459.72
2018-04-24T00:10:19.011Z,99459.30
2018-04-24T00:16:23.360Z,99467.90
2018-04-24T00:22:27.717Z,99474.64
2018-04-24T00:28:32.078Z,99466.70
2018-04-24T00:34:36.428Z,99463.06
2018-04-24T00:40:40.765Z,99455.33
2018-04-24T00:46:45.128Z,99449.67
2018-04-24T00:52:50.239Z,99441.42
2018-04-24T00:58:54.581Z,99446.80
2018-04-24T01:04:58.921Z,99441.52
2018-04-24T01:11:03.273Z,99428.77
2018-04-24T01:17:07.626Z,99431.41
2018-04-24T01:23:11.996Z,99437.22
2018-04-24T01:29:17.101Z,99431.55
2018-04-24T01:35:21.441Z,99437.40
2018-04-24T01:41:25.832Z,99426.83
2018-04-24T01:47:30.954Z,99430.64
2018-04-24T01:53:35.317Z,99429.67
2018-04-24T01:59:39.664Z,99409.83
2018-04-24T02:05:44.017Z,99412.59
2018-04-24T02:11:49.121Z,99411.92
2018-04-24T02:17:53.462Z,99414.14
2018-04-24T02:23:57.843Z,99409.48
2018-04-24T02:30:02.968Z,99399.95
2018-04-24T02:36:08.417Z,99390.34
2018-04-24T02:42:12.762Z,99393.98
2018-04-24T02:48:17.117Z,99391.34
2018-04-24T02:54:21.454Z,99401.94
2018-04-24T03:00:25.792Z,99411.53
2018-04-24T03:06:30.171Z,99407.83
2018-04-24T03:12:34.522Z,99391.50
2018-04-24T03:18:38.838Z,99385.73
2018-04-24T03:24:43.176Z,99381.45
2018-04-24T03:30:47.537Z,99378.83
2018-04-24T03:36:51.874Z,99368.14
2018-04-24T03:42:56.233Z,99360.90
2018-04-24T03:49:01.348Z,99356.33
2018-04-24T03:55:05.693Z,99363.47
2018-04-24T04:01:10.035Z,99352.59
2018-04-24T04:07:14.388Z,99359.34
2018-04-24T04:13:18.734Z,99341.91
2018-04-24T04:19:41.480Z,99330.95
2018-04-24T04:25:45.828Z,99320.82
2018-04-24T04:31:50.178Z,99328.33
2018-04-24T04:37:54.519Z,99338.49
2018-04-24T04:44:00.475Z,99344.04
2018-04-24T04:50:04.862Z,99350.71
2018-04-24T04:56:09.991Z,99361.36
2018-04-24T05:02:14.320Z,99365.99
2018-04-24T05:08:18.657Z,99370.58
2018-04-24T05:14:23.767Z,99353.14
2018-04-24T05:20:28.879Z,99362.99
2018-04-24T05:26:33.228Z,99367.84
2018-04-24T05:32:37.591Z,99387.25
2018-04-24T05:38:41.963Z,99389.69
2018-04-24T05:44:47.080Z,99387.62
2018-04-24T05:50:52.212Z,99402.68
2018-04-24T05:56:56.568Z,99391.95
2018-04-24T06:03:00.927Z,99400.74
2018-04-24T06:09:06.118Z,99410.88
2018-04-24T06:15:11.286Z,99401.80
2018-04-24T06:21:15.621Z,99391.27
2018-04-24T06:27:20.006Z,99405.95
2018-04-24T06:33:24.404Z,99411.77
2018-04-24T06:39:28.761Z,99410.13
2018-04-24T06:45:33.109Z,99402.88
2018-04-24T06:51:37.488Z,99400.27
2018-04-24T06:57:41.824Z,99403.83
2018-04-24T07:03:46.169Z,99417.77
2018-04-24T07:09:50.508Z,99418.59
2018-04-24T07:15:54.849Z,99411.99
2018-04-24T07:21:59.191Z,99401.15
2018-04-24T07:28:03.541Z,99397.95
2018-04-24T07:34:07.908Z,99396.56
2018-04-24T07:40:13.017Z,99400.85
2018-04-24T07:46:18.134Z,99395.20
2018-04-24T07:52:22.476Z,99404.16
2018-04-24T07:58:26.802Z,99399.40
2018-04-24T08:04:31.922Z,99377.98
2018-04-24T08:10:36.255Z,99387.64
2018-04-24T08:16:40.589Z,99385.27
2018-04-24T08:22:45.003Z,99397.23
2018-04-24T08:28:49.267Z,99406.75
2018-04-24T08:34:53.611Z,99412.38
2018-04-24T08:40:57.989Z,99413.03
2018-04-24T08:47:02.329Z,99419.06
2018-04-24T08:53:06.651Z,99409.13
2018-04-24T08:59:11.817Z,99393.77
2018-04-24T09:05:16.173Z,99380.44
2018-04-24T09:11:20.520Z,99395.89
2018-04-24T09:17:24.857Z,99410.92
2018-04-24T09:23:29.986Z,99403.97
2018-04-24T09:29:34.325Z,99407.44
2018-04-24T09:35:38.661Z,99403.46
2018-04-24T09:41:43.096Z,99392.56
2018-04-24T09:47:47.451Z,99384.91
2018-04-24T09:53:51.805Z,99399.79
2018-04-24T09:59:56.148Z,99415.43
2018-04-24T10:06:00.499Z,99417.42
2018-04-24T10:12:04.857Z,99422.27
2018-04-24T10:18:09.987Z,99415.77
2018-04-24T10:24:14.326Z,99428.36
2018-04-24T10:30:18.659Z,99415.23
2018-04-24T10:36:23.613Z,99412.71
2018-04-24T10:42:27.947Z,99426.45
2018-04-24T10:48:32.301Z,99426.00
2018-04-24T10:54:36.685Z,99413.80
2018-04-24T11:00:41.093Z,99411.91
2018-04-24T11:06:45.457Z,99407.77
2018-04-24T11:12:49.733Z,99408.09
2018-04-24T11:18:54.078Z,99401.25
2018-04-24T11:24:58.439Z,99394.37
2018-04-24T11:31:02.793Z,99390.87
2018-04-24T11:37:07.133Z,99381.18
2018-04-24T11:43:11.489Z,99383.83
2018-04-24T11:49:15.839Z,99387.58
2018-04-24T11:55:20.943Z,99393.64
2018-04-24T12:01:25.284Z,99381.47
2018-04-24T12:07:29.629Z,99370.66
2018-04-24T12:13:33.997Z,99367.64
2018-04-24T12:19:38.353Z,99366.66
2018-04-24T12:25:43.479Z,99366.52
2018-04-24T12:31:47.868Z,99355.85
2018-04-24T12:37:53.044Z,99353.89
2018-04-24T12:43:57.384Z,99338.58
2018-04-24T12:50:01.716Z,99342.22
2018-04-24T12:56:06.103Z,99328.48
2018-04-24T13:02:10.437Z,99322.03
2018-04-24T13:08:14.783Z,99323.27
2018-04-24T13:14:19.148Z,99323.51
2018-04-24T13:20:23.589Z,99315.39
2018-04-24T13:26:27.923Z,99312.30
2018-04-24T13:32:32.269Z,99313.83
2018-04-24T13:38:36.608Z,99305.36
2018-04-24T13:44:40.949Z,99305.55
2018-04-24T13:50:45.290Z,99295.04
2018-04-24T13:56:49.620Z,99298.31
2018-04-24T14:02:53.954Z,99294.92
2018-04-24T14:08:58.324Z,99275.31
2018-04-24T14:15:02.688Z,99284.30
2018-04-24T14:21:07.794Z,99285.48
2018-04-24T14:27:12.120Z,99285.95
2018-04-24T14:33:16.479Z,99283.58
2018-04-24T14:39:20.881Z,99279.05
2018-04-24T14:45:25.216Z,99286.94
2018-04-24T14:51:29.581Z,99282.48
2018-04-24T14:57:33.923Z,99273.03
2018-04-24T15:03:38.274Z,99276.06
2018-04-24T15:09:42.616Z,99269.63
2018-04-24T15:15:46.964Z,99272.83
2018-04-24T15:21:51.310Z,99271.39
2018-04-24T15:27:55.671Z,99273.80
2018-04-24T15:34:00.007Z,99274.03
2018-04-24T15:40:04.348Z,99272.36
2018-04-24T15:46:08.703Z,99272.36
2018-04-24T15:52:13.821Z,99270.77
2018-04-24T15:58:18.170Z,99266.67
2018-04-24T16:04:22.516Z,99264.08
2018-04-24T16:10:26.895Z,99253.11
2018-04-24T16:16:31.269Z,99247.97
2018-04-24T16:22:35.631Z,99239.13
2018-04-24T16:28:40.006Z,99245.09
2018-04-24T16:34:45.129Z,99241.87
2018-04-24T16:40:49.475Z,99245.73
2018-04-24T16:46:53.851Z,99238.15
2018-04-24T16:52:59.031Z,99238.84
2018-04-24T16:59:03.402Z,99224.98
2018-04-24T17:05:07.769Z,99224.78
2018-04-24T17:11:12.122Z,99223.47
2018-04-24T17:17:17.252Z,99221.11
2018-04-24T17:23:21.599Z,99219.84
2018-04-24T17:29:25.962Z,99214.30
2018-04-24T17:35:30.313Z,99216.98
2018-04-24T17:41:35.426Z,99218.38
2018-04-24T17:47:39.777Z,99226.06
2018-04-24T17:53:44.133Z,99205.83
2018-04-24T17:59:48.504Z,99222.81
2018-04-24T18:05:53.608Z,99224.27
2018-04-24T18:11:57.960Z,99217.97
2018-04-24T18:18:02.307Z,99215.46
2018-04-24T18:24:06.673Z,99207.25
2018-04-24T18:30:11.793Z,99196.92
2018-04-24T18:36:16.922Z,99196.48
2018-04-24T18:42:21.260Z,99187.52
2018-04-24T18:48:25.620Z,99179.61
2018-04-24T18:54:29.982Z,99178.30
2018-04-24T19:00:34.329Z,99171.80
2018-04-24T19:06:38.716Z,99172.66
2018-04-24T19:12:43.083Z,99169.39
2018-04-24T19:18:52.797Z,99169.96
2018-04-24T19:31:46.356Z,99146.83
2018-04-24T19:37:50.823Z,99157.31
2018-04-24T19:43:55.202Z,99170.64
2018-04-24T19:50:05.790Z,99165.55
2018-04-24T19:56:10.934Z,99165.03
2018-04-24T20:02:15.387Z,99149.80
2018-04-24T20:08:19.859Z,99143.32
2018-04-24T20:14:24.289Z,99144.23
2018-04-24T20:20:28.701Z,99139.52
2018-04-24T20:26:33.947Z,99122.91
2018-04-24T20:32:38.417Z,99110.66
2018-04-24T20:38:42.950Z,99117.23
2018-04-24T20:44:47.320Z,99100.37
2018-04-24T20:50:52.527Z,99094.80
2018-04-24T20:56:57.088Z,99092.48
2018-04-24T21:03:02.252Z,99088.07
2018-04-24T21:09:07.551Z,99078.75
2018-04-24T21:15:11.959Z,99066.60
2018-04-24T21:21:17.088Z,99063.80
2018-04-24T21:27:21.546Z,99061.74
2018-04-24T21:33:26.071Z,99048.42
2018-04-24T21:39:30.559Z,99038.55
2018-04-24T21:45:35.584Z,99033.84
2018-04-24T21:51:40.034Z,99016.71
2018-04-24T21:57:44.411Z,99011.22
2018-04-24T22:03:48.801Z,99007.02
2018-04-24T22:09:54.791Z,98998.13
2018-04-24T22:15:59.331Z,98985.50
2018-04-24T22:22:03.687Z,98983.35
2018-04-24T22:28:08.176Z,98976.41
2018-04-24T22:34:12.750Z,98968.84
2018-04-24T22:40:17.222Z,98973.92
2018-04-24T22:46:21.590Z,98967.08
2018-04-24T22:52:26.047Z,98956.02
2018-04-24T22:58:30.524Z,98946.33
2018-04-24T23:04:35.008Z,98936.39
2018-04-24T23:10:57.976Z,98930.67
2018-04-24T23:17:25.997Z,98918.08
2018-04-24T23:23:36.378Z,98905.74
2018-04-24T23:29:40.729Z,98896.70
2018-04-24T23:35:45.953Z,98897.86
2018-04-24T23:41:50.316Z,98885.89
2018-04-24T23:47:55.660Z,98872.23
2018-04-24T23:54:00.067Z,98870.31
